createdAt,value
2023-09-13T00:02:13.450Z,97062.56
2023-09-13T00:06:16.241Z,97046.97
2023-09-13T00:10:19.976Z,97059.88
2023-09-13T00:14:24.262Z,97055.25
2023-09-13T00:18:26.942Z,97053.38
2023-09-13T00:22:29.564Z,97055.59
2023-09-13T00:26:32.216Z,97077.53
2023-09-13T00:30:36.210Z,97078.94
2023-09-13T00:34:38.911Z,97091.31
2023-09-13T00:38:41.529Z,97077.38
2023-09-13T00:42:44.233Z,97069.41
2023-09-13T00:46:48.389Z,97072.41
2023-09-13T00:50:54.532Z,97078.16
2023-09-13T00:54:57.489Z,97068.03
2023-09-13T00:59:00.792Z,97066.66
2023-09-13T01:03:07.633Z,97075.19
2023-09-13T01:07:11.153Z,97076.81
2023-09-13T01:11:14.050Z,97068.56
2023-09-13T01:15:16.996Z,97082.56
2023-09-13T01:19:40.145Z,97079.25
2023-09-13T01:23:55.920Z,97080.91
2023-09-13T01:28:13.684Z,97081.72
2023-09-13T01:32:17.683Z,97076.78
2023-09-13T01:36:20.364Z,97085.00
2023-09-13T01:40:24.463Z,97083.41
2023-09-13T01:44:29.030Z,97094.09
2023-09-13T01:48:33.930Z,97090.53
2023-09-13T01:52:36.863Z,97094.63
2023-09-13T01:56:39.512Z,97093.25
2023-09-13T02:00:42.594Z,97089.41
2023-09-13T02:04:46.708Z,97091.03
2023-09-13T02:08:49.383Z,97097.34
2023-09-13T02:12:52.749Z,97083.94
2023-09-13T02:17:00.303Z,97078.72
2023-09-13T02:21:04.633Z,97090.50
2023-09-13T02:25:08.215Z,97101.69
2023-09-13T02:29:10.861Z,97109.28
2023-09-13T02:33:13.590Z,97119.94
2023-09-13T02:37:18.741Z,97122.94
2023-09-13T02:41:21.632Z,97121.84
2023-09-13T02:45:24.271Z,97120.72
2023-09-13T02:49:27.042Z,97126.41
2023-09-13T02:53:32.227Z,97129.44
2023-09-13T02:57:35.133Z,97132.44
2023-09-13T03:01:37.879Z,97123.69
2023-09-13T03:05:40.599Z,97122.56
2023-09-13T03:09:45.544Z,97131.09
2023-09-13T03:13:48.405Z,97125.09
2023-09-13T03:17:51.954Z,97122.09
2023-09-13T03:21:54.703Z,97127.84
2023-09-13T03:25:58.724Z,97121.31
2023-09-13T03:30:01.439Z,97127.59
2023-09-13T03:34:04.525Z,97124.06
2023-09-13T03:38:07.197Z,97121.34
2023-09-13T03:42:11.206Z,97119.13
2023-09-13T03:46:14.077Z,97136.09
2023-09-13T03:50:16.885Z,97143.75
2023-09-13T03:54:19.603Z,97144.59
2023-09-13T03:58:23.751Z,97151.16
2023-09-13T04:02:26.621Z,97146.78
2023-09-13T04:06:29.507Z,97147.59
2023-09-13T04:10:32.279Z,97154.13
2023-09-13T04:14:36.323Z,97147.84
2023-09-13T04:18:38.996Z,97139.94
2023-09-13T04:22:41.791Z,97134.19
2023-09-13T04:26:44.449Z,97148.16
2023-09-13T04:30:48.609Z,97140.78
2023-09-13T04:34:51.273Z,97147.88
2023-09-13T04:38:53.925Z,97145.13
2023-09-13T04:43:17.422Z,97141.59
2023-09-13T04:47:21.502Z,97145.06
2023-09-13T04:51:24.220Z,97155.50
2023-09-13T04:55:27.887Z,97157.41
2023-09-13T04:59:44.260Z,97174.16
2023-09-13T05:03:49.693Z,97185.66
2023-09-13T05:07:54.459Z,97191.59
2023-09-13T05:11:57.181Z,97185.50
2023-09-13T05:15:59.902Z,97198.88
2023-09-13T05:20:04.032Z,97206.53
2023-09-13T05:24:07.151Z,97202.16
2023-09-13T05:28:09.861Z,97204.09
2023-09-13T05:32:12.893Z,97204.91
2023-09-13T05:36:17.416Z,97213.97
2023-09-13T05:40:20.143Z,97228.47
2023-09-13T05:44:25.065Z,97235.88
2023-09-13T05:48:27.730Z,97242.41
2023-09-13T05:52:34.241Z,97248.69
2023-09-13T05:56:36.909Z,97260.19
2023-09-13T06:00:40.097Z,97270.06
2023-09-13T06:04:42.837Z,97265.97
2023-09-13T06:08:47.109Z,97273.66
2023-09-13T06:12:49.806Z,97276.69
2023-09-13T06:16:52.639Z,97274.22
2023-09-13T06:20:55.886Z,97274.22
2023-09-13T06:25:00.702Z,97275.31
2023-09-13T06:29:04.260Z,97275.06
2023-09-13T06:33:12.588Z,97275.13
2023-09-13T06:37:16.250Z,97274.59
2023-09-13T06:41:20.547Z,97274.59
2023-09-13T06:45:27.327Z,97277.03
2023-09-13T06:49:32.159Z,97277.59
2023-09-13T06:53:35.904Z,97273.53
2023-09-13T06:57:43.179Z,97271.09
2023-09-13T07:02:07.705Z,97284.31
2023-09-13T07:06:09.196Z,97284.69
2023-09-13T07:10:13.413Z,97294.06
2023-09-13T07:14:18.199Z,97295.44
2023-09-13T07:18:20.904Z,97285.59
2023-09-13T07:22:23.628Z,97296.31
2023-09-13T07:26:26.321Z,97292.75
2023-09-13T07:30:30.517Z,97293.31
2023-09-13T07:34:33.200Z,97297.19
2023-09-13T07:38:36.188Z,97296.25
2023-09-13T07:42:38.868Z,97296.88
2023-09-13T07:46:42.958Z,97301.31
2023-09-13T07:50:47.537Z,97299.97
2023-09-13T07:54:50.255Z,97299.16
2023-09-13T07:58:52.945Z,97309.00
2023-09-13T08:02:57.542Z,97311.75
2023-09-13T08:07:00.617Z,97318.59
2023-09-13T08:11:04.787Z,97332.09
2023-09-13T08:15:08.269Z,97329.69
2023-09-13T08:19:12.420Z,97339.88
2023-09-13T08:23:15.304Z,97343.44
2023-09-13T08:27:18.274Z,97346.19
2023-09-13T08:31:22.272Z,97342.88
2023-09-13T08:35:26.904Z,97337.13
2023-09-13T08:39:29.708Z,97347.25
2023-09-13T08:43:34.427Z,97348.59
2023-09-13T08:47:51.251Z,97357.88
2023-09-13T08:52:02.956Z,97371.06
2023-09-13T08:56:07.766Z,97372.66
2023-09-13T09:00:10.954Z,97370.69
2023-09-13T09:04:15.534Z,97379.94
2023-09-13T09:08:20.271Z,97381.28
2023-09-13T09:12:26.012Z,97387.53
2023-09-13T09:16:29.326Z,97386.44
2023-09-13T09:20:32.270Z,97386.97
2023-09-13T09:24:36.285Z,97389.66
2023-09-13T09:28:39.106Z,97390.16
2023-09-13T09:32:41.955Z,97393.31
2023-09-13T09:36:48.137Z,97393.00
2023-09-13T09:40:52.550Z,97392.91
2023-09-13T09:44:56.313Z,97387.34
2023-09-13T09:48:59.284Z,97387.63
2023-09-13T09:53:10.412Z,97386.06
2023-09-13T09:57:21.892Z,97388.75
2023-09-13T10:01:24.436Z,97391.69
2023-09-13T10:05:27.093Z,97383.03
2023-09-13T10:09:48.427Z,97374.13
2023-09-13T10:13:52.708Z,97380.97
2023-09-13T10:17:57.288Z,97378.28
2023-09-13T10:22:00.187Z,97378.31
2023-09-13T10:26:04.858Z,97377.75
2023-09-13T10:30:12.637Z,97389.25
2023-09-13T10:34:20.659Z,97372.81
2023-09-13T10:38:33.772Z,97383.03
2023-09-13T10:42:36.592Z,97375.78
2023-09-13T10:46:42.363Z,97378.75
2023-09-13T10:50:45.111Z,97363.00
2023-09-13T10:54:49.908Z,97371.94
2023-09-13T10:58:55.863Z,97377.75
2023-09-13T11:03:01.176Z,97369.88
2023-09-13T11:07:06.005Z,97369.88
2023-09-13T11:11:10.358Z,97364.94
2023-09-13T11:15:20.678Z,97363.91
2023-09-13T11:19:29.936Z,97352.69
2023-09-13T11:24:00.106Z,97355.53
2023-09-13T11:28:07.428Z,97345.25
2023-09-13T11:32:17.577Z,97346.03
2023-09-13T11:36:22.118Z,97355.41
2023-09-13T11:40:26.685Z,97346.19
2023-09-13T11:48:55.032Z,97352.97
2023-09-13T11:53:18.136Z,97353.16
2023-09-13T11:57:25.648Z,97355.88
2023-09-13T12:01:32.921Z,97345.31
2023-09-13T12:05:50.374Z,97348.34
2023-09-13T12:10:07.504Z,97341.81
2023-09-13T12:14:13.502Z,97348.38
2023-09-13T12:18:22.867Z,97344.09
2023-09-13T12:22:25.556Z,97345.81
2023-09-13T12:26:29.948Z,97339.31
2023-09-13T12:30:32.658Z,97340.47
2023-09-13T12:34:35.726Z,97336.94
2023-09-13T12:38:47.364Z,97346.13
2023-09-13T12:42:51.590Z,97336.50
2023-09-13T12:46:55.181Z,97330.59
2023-09-13T12:50:57.857Z,97332.00
2023-09-13T12:55:00.660Z,97338.03
2023-09-13T12:59:04.736Z,97342.81
2023-09-13T13:03:07.785Z,97333.03
2023-09-13T13:07:10.897Z,97332.88
2023-09-13T13:11:13.734Z,97329.09
2023-09-13T13:15:18.037Z,97324.28
2023-09-13T13:19:30.454Z,97319.63
2023-09-13T13:23:35.424Z,97327.75
2023-09-13T13:27:38.100Z,97324.34
2023-09-13T13:31:42.239Z,97326.94
2023-09-13T13:35:45.263Z,97326.34
2023-09-13T13:39:47.952Z,97313.97
2023-09-13T13:43:51.079Z,97315.41
2023-09-13T13:47:55.117Z,97326.63
2023-09-13T13:51:57.778Z,97321.19
2023-09-13T13:56:01.016Z,97328.00
2023-09-13T14:00:04.629Z,97326.13
2023-09-13T14:04:08.737Z,97324.06
2023-09-13T14:08:11.600Z,97325.81
2023-09-13T14:12:14.272Z,97332.63
2023-09-13T14:16:16.924Z,97316.50
2023-09-13T14:20:21.799Z,97325.25
2023-09-13T14:24:24.482Z,97323.59
2023-09-13T14:28:27.501Z,97334.34
2023-09-13T14:32:30.204Z,97328.66
2023-09-13T14:36:34.319Z,97330.84
2023-09-13T14:40:36.988Z,97318.31
2023-09-13T14:44:40.333Z,97314.00
2023-09-13T14:48:43.224Z,97321.91
2023-09-13T14:52:47.477Z,97318.94
2023-09-13T14:56:50.301Z,97321.41
2023-09-13T15:00:53.055Z,97317.38
2023-09-13T15:04:55.852Z,97323.56
2023-09-13T15:08:59.912Z,97331.84
2023-09-13T15:13:03.703Z,97328.25
2023-09-13T15:17:06.636Z,97328.38
2023-09-13T15:21:09.276Z,97336.53
2023-09-13T15:25:14.171Z,97333.84
2023-09-13T15:29:16.836Z,97327.50
2023-09-13T15:33:19.868Z,97328.31
2023-09-13T15:37:22.591Z,97335.50
2023-09-13T15:41:26.679Z,97327.59
2023-09-13T15:45:29.437Z,97329.28
2023-09-13T15:49:32.202Z,97335.41
2023-09-13T15:53:34.945Z,97333.06
2023-09-13T15:57:39.174Z,97327.38
2023-09-13T16:01:42.023Z,97329.06
2023-09-13T16:05:45.137Z,97334.41
2023-09-13T16:09:47.993Z,97342.72
2023-09-13T16:13:52.224Z,97344.78
2023-09-13T16:17:54.933Z,97343.97
2023-09-13T16:21:58.277Z,97351.38
2023-09-13T16:26:01.006Z,97362.41
2023-09-13T16:30:07.162Z,97360.53
2023-09-13T16:34:09.955Z,97364.38
2023-09-13T16:38:12.693Z,97372.44
2023-09-13T16:42:15.446Z,97368.91
2023-09-13T16:46:19.793Z,97378.34
2023-09-13T16:50:22.515Z,97384.31
2023-09-13T16:54:25.197Z,97393.63
2023-09-13T16:58:27.923Z,97392.59
2023-09-13T17:02:32.064Z,97391.59
2023-09-13T17:06:35.182Z,97402.31
2023-09-13T17:10:37.928Z,97419.72
2023-09-13T17:14:41.495Z,97420.31
2023-09-13T17:18:45.803Z,97421.16
2023-09-13T17:22:48.707Z,97429.13
2023-09-13T17:27:03.903Z,97427.72
2023-09-13T17:31:12.234Z,97417.56
2023-09-13T17:35:16.320Z,97426.63
2023-09-13T17:39:19.009Z,97419.22
2023-09-13T17:43:22.864Z,97437.25
2023-09-13T17:47:25.941Z,97436.09
2023-09-13T17:51:30.600Z,97445.41
2023-09-13T17:55:33.559Z,97453.88
2023-09-13T17:59:36.235Z,97453.31
2023-09-13T18:03:40.949Z,97456.84
2023-09-13T18:07:47.222Z,97452.44
2023-09-13T18:11:52.949Z,97462.88
2023-09-13T18:15:55.736Z,97460.41
2023-09-13T18:19:58.774Z,97476.84
2023-09-13T18:24:03.184Z,97470.53
2023-09-13T18:28:06.862Z,97469.19
2023-09-13T18:32:09.594Z,97471.63
2023-09-13T18:36:12.351Z,97479.28
2023-09-13T18:40:16.578Z,97485.28
2023-09-13T18:44:19.512Z,97488.81
2023-09-13T18:48:22.546Z,97493.72
2023-09-13T18:52:25.253Z,97490.41
2023-09-13T18:56:29.653Z,97491.22
2023-09-13T19:00:33.564Z,97494.66
2023-09-13T19:04:36.386Z,97506.16
2023-09-13T19:08:39.263Z,97498.97
2023-09-13T19:12:43.385Z,97509.06
2023-09-13T19:16:46.184Z,97517.84
2023-09-13T19:20:49.031Z,97516.16
2023-09-13T19:24:57.438Z,97524.38
2023-09-13T19:29:02.005Z,97527.31
2023-09-13T19:33:07.361Z,97528.91
2023-09-13T19:37:10.058Z,97540.41
2023-09-13T19:41:16.688Z,97534.06
2023-09-13T19:45:20.771Z,97538.72
2023-09-13T19:49:23.511Z,97541.63
2023-09-13T19:53:26.825Z,97556.41
2023-09-13T19:57:31.743Z,97555.84
2023-09-13T20:01:37.029Z,97558.28
2023-09-13T20:05:40.082Z,97557.66
2023-09-13T20:09:43.501Z,97562.44
2023-09-13T20:13:46.232Z,97566.00
2023-09-13T20:17:50.517Z,97565.69
2023-09-13T20:21:53.261Z,97565.94
2023-09-13T20:25:57.264Z,97577.72
2023-09-13T20:30:00.013Z,97575.56
2023-09-13T20:34:04.119Z,97580.50
2023-09-13T20:38:08.325Z,97575.34
2023-09-13T20:42:11.134Z,97584.69
2023-09-13T20:46:13.938Z,97589.59
2023-09-13T20:50:18.072Z,97584.91
2023-09-13T20:54:23.081Z,97592.56
2023-09-13T20:58:25.780Z,97595.31
2023-09-13T21:02:28.470Z,97598.91
2023-09-13T21:06:32.522Z,97604.63
2023-09-13T21:10:35.228Z,97597.75
2023-09-13T21:14:37.912Z,97595.84
2023-09-13T21:18:40.650Z,97599.72
2023-09-13T21:22:44.713Z,97593.44
2023-09-13T21:26:50.881Z,97601.09
2023-09-13T21:31:00.524Z,97601.81
2023-09-13T21:35:06.033Z,97602.34
2023-09-13T21:39:10.460Z,97600.94
2023-09-13T21:43:13.124Z,97601.78
2023-09-13T21:47:15.750Z,97611.63
2023-09-13T21:51:18.434Z,97603.41
2023-09-13T21:55:22.455Z,97605.06
2023-09-13T21:59:27.197Z,97609.69
2023-09-13T22:03:34.087Z,97610.78
2023-09-13T22:07:36.944Z,97610.47
2023-09-13T22:11:41.065Z,97606.34
2023-09-13T22:15:43.839Z,97602.81
2023-09-13T22:19:46.684Z,97610.16
2023-09-13T22:23:49.437Z,97619.69
2023-09-13T22:27:53.669Z,97613.59
2023-09-13T22:32:05.187Z,97610.59
2023-09-13T22:36:16.145Z,97614.69
2023-09-13T22:40:23.350Z,97618.72
2023-09-13T22:44:38.727Z,97617.91
2023-09-13T22:48:42.756Z,97625.56
2023-09-13T22:53:11.964Z,97626.66
2023-09-13T22:57:14.729Z,97633.94
2023-09-13T23:01:18.982Z,97631.91
2023-09-13T23:05:21.769Z,97623.09
2023-09-13T23:09:24.499Z,97629.38
2023-09-13T23:13:27.107Z,97633.75
2023-09-13T23:17:31.661Z,97632.69
2023-09-13T23:21:34.347Z,97631.03
2023-09-13T23:25:37.263Z,97627.47
2023-09-13T23:29:39.920Z,97639.81
2023-09-13T23:33:46.307Z,97637.34
2023-09-13T23:37:48.980Z,97632.03
2023-09-13T23:41:51.728Z,97627.34
2023-09-13T23:45:54.473Z,97622.38
2023-09-13T23:49:58.493Z,97626.09
2023-09-13T23:54:01.135Z,97620.31
2023-09-13T23:58:04.667Z,97629.28
